createdAt,value
2023-04-25T00:00:15.683Z,4.84
2023-04-25T00:01:15.642Z,4.89
2023-04-25T00:02:15.710Z,4.73
2023-04-25T00:03:15.735Z,4.80
2023-04-25T00:04:15.886Z,4.89
2023-04-25T00:05:15.703Z,4.87
2023-04-25T00:06:15.619Z,4.90
2023-04-25T00:07:15.591Z,4.94
2023-04-25T00:08:15.586Z,4.82
2023-04-25T00:09:15.589Z,4.70
2023-04-25T00:10:15.606Z,4.80
2023-04-25T00:11:15.576Z,4.86
2023-04-25T00:12:15.551Z,4.94
2023-04-25T00:13:15.546Z,4.87
2023-04-25T00:14:15.541Z,4.87
2023-04-25T00:15:15.565Z,4.97
2023-04-25T00:16:15.576Z,4.89
2023-04-25T00:17:15.518Z,4.96
2023-04-25T00:18:15.555Z,4.97
2023-04-25T00:19:15.512Z,4.97
2023-04-25T00:20:15.532Z,4.89
2023-04-25T00:21:15.495Z,5.00
2023-04-25T00:22:15.478Z,4.93
2023-04-25T00:23:15.475Z,4.93
2023-04-25T00:24:15.458Z,4.87
2023-04-25T00:25:15.479Z,4.87
2023-04-25T00:26:15.474Z,4.94
2023-04-25T00:27:15.436Z,4.82
2023-04-25T00:28:15.429Z,4.78
2023-04-25T00:29:15.427Z,4.68
2023-04-25T00:30:15.437Z,4.66
2023-04-25T00:31:15.416Z,4.71
2023-04-25T00:32:15.393Z,4.74
2023-04-25T00:33:15.407Z,4.68
2023-04-25T00:34:15.373Z,4.78
2023-04-25T00:35:15.399Z,4.70
2023-04-25T00:36:15.377Z,4.71
2023-04-25T00:37:15.370Z,4.58
2023-04-25T00:38:15.344Z,4.67
2023-04-25T00:39:15.349Z,4.52
2023-04-25T00:40:15.374Z,4.55
2023-04-25T00:41:15.330Z,4.52
2023-04-25T00:42:15.312Z,4.48
2023-04-25T00:43:15.332Z,4.55
2023-04-25T00:44:15.308Z,4.55
2023-04-25T00:45:15.329Z,4.53
2023-04-25T00:46:15.330Z,4.50
2023-04-25T00:47:15.301Z,4.38
2023-04-25T00:48:15.287Z,4.34
2023-04-25T00:49:15.266Z,4.41
2023-04-25T00:50:15.278Z,4.41
2023-04-25T00:51:15.256Z,4.41
2023-04-25T00:52:15.251Z,4.45
2023-04-25T00:53:15.233Z,4.34
2023-04-25T00:54:15.230Z,4.45
2023-04-25T00:55:15.263Z,4.42
2023-04-25T00:56:16.210Z,4.45
2023-04-25T00:57:15.192Z,4.56
2023-04-25T00:58:15.188Z,4.56
2023-04-25T00:59:15.176Z,4.52
2023-04-25T01:00:15.208Z,4.56
2023-04-25T01:01:15.279Z,4.56
2023-04-25T01:02:15.187Z,4.70
2023-04-25T01:03:15.208Z,4.68
2023-04-25T01:04:15.388Z,4.71
2023-04-25T01:05:15.137Z,4.67
2023-04-25T01:06:15.165Z,4.68
2023-04-25T01:07:15.155Z,4.66
2023-04-25T01:08:15.122Z,4.77
2023-04-25T01:09:15.130Z,4.82
2023-04-25T01:10:15.096Z,4.84
2023-04-25T01:11:15.140Z,4.75
2023-04-25T01:12:15.134Z,4.80
2023-04-25T01:13:15.077Z,4.75
2023-04-25T01:14:15.068Z,4.67
2023-04-25T01:15:15.101Z,4.78
2023-04-25T01:16:15.068Z,4.74
2023-04-25T01:17:15.052Z,4.73
2023-04-25T01:18:15.039Z,4.73
2023-04-25T01:19:15.041Z,4.78
2023-04-25T01:20:15.056Z,4.68
2023-04-25T01:21:15.051Z,4.73
2023-04-25T01:22:15.010Z,4.86
2023-04-25T01:23:14.999Z,4.66
2023-04-25T01:24:15.008Z,4.70
2023-04-25T01:25:15.028Z,4.70
2023-04-25T01:26:14.969Z,4.71
2023-04-25T01:27:14.994Z,4.68
2023-04-25T01:28:14.971Z,4.67
2023-04-25T01:29:14.962Z,4.63
2023-04-25T01:30:14.955Z,4.67
2023-04-25T01:31:14.955Z,4.70
2023-04-25T01:32:14.979Z,4.48
2023-04-25T01:33:14.934Z,4.53
2023-04-25T01:34:14.943Z,4.38
2023-04-25T01:35:14.914Z,4.42
2023-04-25T01:36:14.932Z,4.42
2023-04-25T01:37:14.916Z,4.44
2023-04-25T01:38:14.883Z,4.37
2023-04-25T01:39:14.868Z,4.42
2023-04-25T01:40:14.878Z,4.34
2023-04-25T01:41:14.884Z,4.42
2023-04-25T01:42:14.851Z,4.38
2023-04-25T01:43:14.858Z,4.37
2023-04-25T01:44:14.841Z,4.35
2023-04-25T01:45:14.836Z,4.35
2023-04-25T01:46:14.932Z,4.32
2023-04-25T01:47:15.810Z,4.26
2023-04-25T01:48:14.815Z,4.16
2023-04-25T01:49:14.819Z,4.06
2023-04-25T01:50:14.790Z,3.99
2023-04-25T01:51:14.823Z,3.96
2023-04-25T01:52:14.772Z,4.01
2023-04-25T01:53:14.769Z,3.95
2023-04-25T01:54:14.763Z,4.02
2023-04-25T01:55:14.772Z,3.98
2023-04-25T01:56:14.782Z,3.98
2023-04-25T01:57:14.746Z,3.88
2023-04-25T01:58:14.728Z,3.92
2023-04-25T01:59:14.732Z,3.99
2023-04-25T02:00:14.733Z,3.91
2023-04-25T02:01:14.756Z,3.98
2023-04-25T02:02:14.805Z,3.98
2023-04-25T02:03:14.835Z,4.06
2023-04-25T02:04:14.820Z,3.92
2023-04-25T02:05:14.681Z,3.95
2023-04-25T02:06:14.684Z,3.95
2023-04-25T02:07:14.653Z,4.13
2023-04-25T02:08:14.650Z,3.96
2023-04-25T02:09:14.640Z,3.96
2023-04-25T02:10:14.633Z,3.91
2023-04-25T02:11:14.689Z,4.01
2023-04-25T02:12:14.619Z,4.10
2023-04-25T02:13:14.626Z,3.92
2023-04-25T02:14:14.601Z,4.04
2023-04-25T02:15:14.598Z,4.04
2023-04-25T02:16:14.695Z,4.16
2023-04-25T02:17:14.656Z,4.05
2023-04-25T02:18:14.624Z,4.06
2023-04-25T02:19:14.574Z,4.12
2023-04-25T02:20:14.566Z,3.95
2023-04-25T02:21:14.617Z,3.96
2023-04-25T02:22:14.550Z,3.99
2023-04-25T02:23:14.550Z,4.02
2023-04-25T02:24:14.536Z,3.95
2023-04-25T02:25:14.537Z,3.83
2023-04-25T02:26:14.576Z,3.95
2023-04-25T02:27:14.509Z,3.95
2023-04-25T02:28:14.505Z,3.94
2023-04-25T02:29:14.495Z,3.86
2023-04-25T02:30:14.490Z,3.74
2023-04-25T02:31:14.539Z,3.76
2023-04-25T02:32:14.467Z,3.65
2023-04-25T02:33:14.459Z,3.78
2023-04-25T02:34:14.452Z,3.88
2023-04-25T02:35:14.447Z,3.86
2023-04-25T02:36:14.473Z,3.94
2023-04-25T02:37:14.433Z,3.77
2023-04-25T02:38:14.419Z,3.78
2023-04-25T02:39:14.442Z,3.80
2023-04-25T02:40:14.414Z,3.80
2023-04-25T02:41:14.433Z,3.87
2023-04-25T02:42:14.396Z,3.84
2023-04-25T02:43:14.386Z,3.81
2023-04-25T02:44:14.378Z,3.76
2023-04-25T02:45:14.371Z,3.63
2023-04-25T02:46:14.423Z,3.47
2023-04-25T02:47:14.380Z,3.37
2023-04-25T02:48:14.382Z,3.31
2023-04-25T02:49:14.343Z,3.37
2023-04-25T02:50:14.341Z,3.50
2023-04-25T02:51:14.350Z,3.28
2023-04-25T02:52:14.317Z,3.41
2023-04-25T02:53:14.305Z,3.42
2023-04-25T02:54:14.305Z,3.40
2023-04-25T02:55:14.309Z,3.45
2023-04-25T02:56:14.338Z,3.42
2023-04-25T02:57:14.273Z,3.47
2023-04-25T02:58:14.266Z,3.45
2023-04-25T02:59:14.276Z,3.29
2023-04-25T03:00:14.258Z,3.37
2023-04-25T03:01:14.283Z,3.26
2023-04-25T03:02:14.265Z,3.29
2023-04-25T03:03:14.355Z,3.11
2023-04-25T03:04:14.245Z,3.00
2023-04-25T03:05:14.216Z,2.86
2023-04-25T03:06:14.233Z,2.97
2023-04-25T03:07:14.222Z,2.89
2023-04-25T03:08:14.215Z,2.83
2023-04-25T03:09:14.195Z,2.68
2023-04-25T03:10:14.184Z,2.54
2023-04-25T03:11:14.203Z,2.51
2023-04-25T03:12:14.155Z,2.39
2023-04-25T03:13:14.156Z,2.31
2023-04-25T03:14:14.149Z,2.31
2023-04-25T03:15:14.140Z,2.32
2023-04-25T03:16:14.190Z,2.29
2023-04-25T03:17:14.122Z,2.42
2023-04-25T03:18:14.127Z,2.42
2023-04-25T03:19:14.112Z,2.51
2023-04-25T03:20:14.112Z,2.56
2023-04-25T03:21:14.118Z,2.68
2023-04-25T03:22:14.083Z,2.61
2023-04-25T03:23:14.086Z,2.67
2023-04-25T03:24:14.077Z,2.69
2023-04-25T03:25:14.068Z,2.77
2023-04-25T03:26:14.082Z,2.62
2023-04-25T03:27:14.044Z,2.61
2023-04-25T03:28:14.036Z,2.60
2023-04-25T03:29:14.028Z,2.75
2023-04-25T03:30:14.044Z,2.80
2023-04-25T03:31:14.036Z,2.72
2023-04-25T03:32:14.117Z,2.68
2023-04-25T03:33:14.004Z,2.80
2023-04-25T03:34:13.988Z,2.85
2023-04-25T03:35:14.015Z,2.72
2023-04-25T03:36:14.022Z,2.80
2023-04-25T03:37:13.965Z,2.67
2023-04-25T03:38:13.955Z,2.56
2023-04-25T03:39:13.957Z,2.53
2023-04-25T03:40:13.948Z,2.67
2023-04-25T03:41:14.006Z,2.65
2023-04-25T03:42:13.972Z,2.57
2023-04-25T03:43:13.913Z,2.61
2023-04-25T03:44:13.911Z,2.61
2023-04-25T03:45:13.934Z,2.57
2023-04-25T03:46:13.946Z,2.68
2023-04-25T03:47:13.912Z,2.65
2023-04-25T03:48:13.885Z,2.69
2023-04-25T03:49:13.877Z,2.72
2023-04-25T03:50:13.860Z,2.71
2023-04-25T03:51:13.887Z,2.69
2023-04-25T03:52:13.894Z,2.72
2023-04-25T03:53:13.834Z,2.71
2023-04-25T03:54:13.824Z,2.68
2023-04-25T03:55:14.825Z,2.72
2023-04-25T03:56:13.817Z,2.68
2023-04-25T03:57:13.838Z,2.75
2023-04-25T03:58:13.808Z,2.82
2023-04-25T03:59:13.805Z,2.77
2023-04-25T04:00:13.791Z,2.87
2023-04-25T04:01:13.795Z,2.86
2023-04-25T04:02:13.865Z,2.90
2023-04-25T04:03:13.920Z,2.87
2023-04-25T04:04:14.198Z,3.00
2023-04-25T04:05:14.016Z,2.95
2023-04-25T04:06:13.740Z,2.98
2023-04-25T04:07:13.771Z,2.92
2023-04-25T04:08:13.726Z,3.03
2023-04-25T04:09:13.719Z,3.03
2023-04-25T04:10:13.754Z,2.95
2023-04-25T04:11:13.705Z,2.98
2023-04-25T04:12:13.738Z,3.01
2023-04-25T04:13:13.785Z,2.98
2023-04-25T04:14:13.686Z,2.95
2023-04-25T04:15:13.681Z,2.89
2023-04-25T04:16:13.730Z,2.82
2023-04-25T04:17:13.690Z,2.80
2023-04-25T04:18:13.661Z,2.75
2023-04-25T04:19:13.650Z,2.82
2023-04-25T04:20:13.647Z,2.67
2023-04-25T04:21:13.631Z,2.77
2023-04-25T04:22:13.655Z,2.80
2023-04-25T04:23:13.631Z,2.77
2023-04-25T04:24:13.610Z,2.85
2023-04-25T04:25:13.613Z,2.92
2023-04-25T04:26:13.618Z,2.92
2023-04-25T04:27:13.587Z,2.89
2023-04-25T04:28:13.580Z,2.97
2023-04-25T04:29:13.580Z,3.13
2023-04-25T04:30:13.566Z,3.01
2023-04-25T04:31:13.616Z,3.11
2023-04-25T04:32:13.547Z,3.18
2023-04-25T04:33:13.572Z,3.11
2023-04-25T04:34:13.526Z,3.14
2023-04-25T04:35:13.526Z,3.11
2023-04-25T04:36:13.571Z,3.19
2023-04-25T04:37:13.513Z,3.23
2023-04-25T04:38:13.521Z,3.40
2023-04-25T04:39:13.499Z,3.36
2023-04-25T04:40:13.499Z,2.89
2023-04-25T04:41:13.480Z,2.38
2023-04-25T04:42:13.515Z,2.31
2023-04-25T04:43:13.469Z,2.18
2023-04-25T04:44:13.504Z,2.15
2023-04-25T04:45:13.456Z,2.24
2023-04-25T04:46:13.457Z,2.28
2023-04-25T04:47:13.467Z,2.38
2023-04-25T04:48:13.505Z,2.39
2023-04-25T04:49:13.439Z,2.60
2023-04-25T04:50:13.428Z,2.64
2023-04-25T04:51:13.409Z,2.56
2023-04-25T04:52:13.434Z,2.68
2023-04-25T04:53:13.403Z,2.68
2023-04-25T04:54:13.397Z,2.74
2023-04-25T04:55:13.386Z,2.82
2023-04-25T04:56:13.377Z,2.82
2023-04-25T04:57:13.390Z,2.82
2023-04-25T04:58:13.358Z,2.82
2023-04-25T04:59:13.348Z,2.83
2023-04-25T05:00:13.340Z,2.93
2023-04-25T05:01:14.379Z,3.03
2023-04-25T05:02:13.468Z,3.11
2023-04-25T05:03:13.451Z,3.19
2023-04-25T05:04:13.416Z,3.28
2023-04-25T05:05:13.294Z,3.37
2023-04-25T05:06:13.303Z,3.50
2023-04-25T05:07:13.318Z,3.48
2023-04-25T05:08:13.276Z,3.48
2023-04-25T05:09:13.272Z,3.50
2023-04-25T05:10:13.274Z,3.53
2023-04-25T05:11:13.254Z,3.48
2023-04-25T05:12:13.267Z,3.62
2023-04-25T05:13:13.230Z,3.70
2023-04-25T05:14:13.225Z,3.73
2023-04-25T05:15:13.218Z,3.77
2023-04-25T05:16:13.228Z,3.70
2023-04-25T05:17:13.226Z,3.83
2023-04-25T05:18:13.337Z,3.80
2023-04-25T05:19:13.194Z,3.87
2023-04-25T05:20:13.184Z,3.81
2023-04-25T05:21:13.183Z,3.87
2023-04-25T05:22:13.197Z,3.84
2023-04-25T05:23:13.165Z,3.87
2023-04-25T05:24:45.809Z,3.84
2023-04-25T05:25:13.144Z,3.92
2023-04-25T05:26:13.135Z,3.78
2023-04-25T05:27:13.158Z,3.76
2023-04-25T05:28:13.148Z,3.81
2023-04-25T05:29:13.114Z,3.83
2023-04-25T05:30:13.102Z,3.91
2023-04-25T05:31:13.108Z,3.94
2023-04-25T05:32:13.188Z,3.94
2023-04-25T05:33:13.154Z,4.04
2023-04-25T05:34:13.093Z,4.17
2023-04-25T05:35:14.100Z,4.31
2023-04-25T05:36:13.087Z,4.34
2023-04-25T05:37:13.082Z,4.41
2023-04-25T05:38:13.068Z,4.53
2023-04-25T05:39:13.133Z,4.50
2023-04-25T05:40:13.038Z,4.58
2023-04-25T05:41:13.555Z,4.66
2023-04-25T05:42:13.046Z,4.63
2023-04-25T05:43:13.014Z,4.68
2023-04-25T05:44:13.008Z,4.86
2023-04-25T05:45:13.003Z,4.96
2023-04-25T05:46:13.079Z,5.08
2023-04-25T05:47:13.001Z,5.30
2023-04-25T05:48:13.028Z,5.32
2023-04-25T05:49:12.961Z,5.38
2023-04-25T05:50:12.960Z,5.57
2023-04-25T05:51:12.952Z,5.61
2023-04-25T05:52:12.977Z,5.66
2023-04-25T05:53:12.949Z,5.75
2023-04-25T05:54:12.933Z,5.75
2023-04-25T05:55:12.925Z,5.83
2023-04-25T05:56:12.982Z,5.89
2023-04-25T05:57:12.924Z,5.86
2023-04-25T05:58:12.893Z,5.93
2023-04-25T05:59:12.883Z,5.99
2023-04-25T06:00:12.908Z,5.94
2023-04-25T06:01:12.907Z,5.99
2023-04-25T06:02:12.943Z,6.12
2023-04-25T06:03:13.008Z,6.04
2023-04-25T06:04:13.260Z,6.17
2023-04-25T06:05:13.053Z,6.19
2023-04-25T06:06:12.834Z,6.22
2023-04-25T06:07:12.853Z,6.22
2023-04-25T06:08:12.828Z,6.11
2023-04-25T06:09:14.395Z,6.28
2023-04-25T06:10:13.808Z,6.26
2023-04-25T06:11:12.800Z,6.24
2023-04-25T06:12:12.808Z,6.26
2023-04-25T06:13:12.780Z,6.35
2023-04-25T06:14:12.776Z,6.38
2023-04-25T06:15:24.280Z,6.41
2023-04-25T06:16:14.798Z,6.41
2023-04-25T06:17:12.784Z,6.48
2023-04-25T06:18:12.756Z,6.48
2023-04-25T06:19:12.731Z,6.63
2023-04-25T06:20:12.732Z,6.64
2023-04-25T06:21:12.726Z,6.63
2023-04-25T06:22:12.795Z,6.70
2023-04-25T06:23:12.741Z,6.74
2023-04-25T06:24:12.699Z,6.82
2023-04-25T06:25:12.738Z,6.85
2023-04-25T06:26:12.675Z,6.84
2023-04-25T06:27:13.165Z,7.00
2023-04-25T06:28:12.690Z,7.11
2023-04-25T06:29:12.651Z,7.05
2023-04-25T06:30:12.660Z,7.10
2023-04-25T06:31:12.681Z,7.14
2023-04-25T06:32:12.654Z,7.17
2023-04-25T06:33:12.662Z,7.23
2023-04-25T06:34:12.623Z,7.25
2023-04-25T06:35:12.611Z,7.35
2023-04-25T06:36:12.590Z,7.39
2023-04-25T06:37:13.664Z,7.47
2023-04-25T06:38:12.594Z,7.48
2023-04-25T06:39:12.591Z,7.56
2023-04-25T06:40:12.576Z,7.56
2023-04-25T06:41:12.582Z,7.58
2023-04-25T06:42:12.587Z,7.48
2023-04-25T06:43:12.560Z,7.53
2023-04-25T06:44:12.547Z,7.53
2023-04-25T06:45:13.543Z,7.32
2023-04-25T06:46:12.591Z,7.28
2023-04-25T06:47:12.555Z,7.25
2023-04-25T06:48:12.521Z,7.31
2023-04-25T06:49:12.508Z,7.31
2023-04-25T06:50:12.702Z,7.32
2023-04-25T06:51:12.512Z,7.36
2023-04-25T06:52:12.512Z,7.39
2023-04-25T06:53:12.501Z,7.61
2023-04-25T06:54:12.478Z,7.69
2023-04-25T06:55:12.489Z,7.60
2023-04-25T06:56:12.462Z,7.67
2023-04-25T06:57:12.488Z,7.83
2023-04-25T06:58:12.441Z,7.76
2023-04-25T06:59:12.435Z,7.57
2023-04-25T07:00:12.423Z,7.58
2023-04-25T07:01:12.430Z,7.66
2023-04-25T07:02:12.482Z,7.77
2023-04-25T07:03:12.490Z,7.61
2023-04-25T07:04:12.630Z,7.61
2023-04-25T07:05:12.401Z,7.77
2023-04-25T07:06:12.381Z,7.76
2023-04-25T07:07:12.398Z,7.40
2023-04-25T07:08:12.361Z,7.33
2023-04-25T07:09:12.358Z,7.23
2023-04-25T07:10:12.350Z,7.31
2023-04-25T07:11:12.349Z,7.32
2023-04-25T07:12:12.355Z,7.31
2023-04-25T07:13:12.329Z,7.31
2023-04-25T07:14:12.325Z,7.33
2023-04-25T07:15:12.308Z,7.42
2023-04-25T07:16:12.379Z,7.39
2023-04-25T07:17:12.330Z,7.43
2023-04-25T07:18:12.349Z,7.33
2023-04-25T07:19:12.292Z,7.47
2023-04-25T07:20:12.287Z,7.51
2023-04-25T07:21:12.275Z,7.69
2023-04-25T07:22:12.340Z,7.63
2023-04-25T07:23:12.317Z,7.60
2023-04-25T07:24:12.271Z,7.67
2023-04-25T07:25:12.226Z,7.61
2023-04-25T07:26:12.225Z,7.50
2023-04-25T07:27:12.245Z,7.24
2023-04-25T07:28:12.219Z,7.06
2023-04-25T07:29:12.204Z,7.00
2023-04-25T07:30:12.193Z,7.00
2023-04-25T07:31:12.189Z,7.05
2023-04-25T07:32:12.277Z,7.15
2023-04-25T07:33:12.293Z,7.21
2023-04-25T07:34:12.233Z,7.35
2023-04-25T07:35:12.167Z,7.38
2023-04-25T07:36:12.160Z,7.43
2023-04-25T07:37:12.178Z,7.36
2023-04-25T07:38:12.137Z,7.42
2023-04-25T07:39:12.131Z,7.32
2023-04-25T07:40:12.136Z,7.29
2023-04-25T07:41:12.124Z,7.15
2023-04-25T07:42:12.122Z,7.18
2023-04-25T07:43:12.095Z,7.15
2023-04-25T07:44:12.094Z,7.11
2023-04-25T07:45:12.083Z,7.20
2023-04-25T07:46:12.100Z,7.23
2023-04-25T07:47:12.090Z,7.21
2023-04-25T07:48:12.073Z,7.24
2023-04-25T07:49:12.057Z,7.36
2023-04-25T07:50:12.046Z,7.61
2023-04-25T07:51:12.041Z,7.70
2023-04-25T07:52:12.052Z,7.76
2023-04-25T07:53:12.013Z,7.75
2023-04-25T07:54:12.050Z,7.98
2023-04-25T07:55:12.005Z,8.00
2023-04-25T07:56:12.001Z,7.95
2023-04-25T07:57:12.032Z,7.80
2023-04-25T07:58:12.096Z,7.93
2023-04-25T07:59:11.966Z,8.23
2023-04-25T08:00:11.961Z,8.30
2023-04-25T08:01:11.949Z,8.23
2023-04-25T08:02:13.031Z,8.13
2023-04-25T08:03:12.177Z,8.01
2023-04-25T08:04:12.064Z,8.08
2023-04-25T08:05:12.036Z,8.03
2023-04-25T08:06:12.389Z,7.97
2023-04-25T08:07:11.944Z,8.01
2023-04-25T08:08:11.904Z,7.97
2023-04-25T08:09:11.900Z,7.98
2023-04-25T08:10:11.915Z,8.08
2023-04-25T08:11:11.890Z,8.34
2023-04-25T08:12:11.909Z,8.49
2023-04-25T08:13:11.876Z,8.45
2023-04-25T08:14:11.857Z,8.41
2023-04-25T08:15:11.859Z,8.44
2023-04-25T08:16:11.860Z,8.27
2023-04-25T08:17:11.938Z,8.08
2023-04-25T08:18:11.870Z,7.97
2023-04-25T08:19:11.866Z,7.88
2023-04-25T08:20:11.834Z,8.15
2023-04-25T08:21:11.812Z,8.20
2023-04-25T08:22:11.816Z,8.36
2023-04-25T08:23:11.806Z,8.45
2023-04-25T08:24:11.794Z,8.42
2023-04-25T08:25:11.783Z,8.49
2023-04-25T08:26:11.769Z,8.49
2023-04-25T08:27:11.786Z,8.44
2023-04-25T08:28:11.750Z,8.34
2023-04-25T08:29:11.748Z,8.37
2023-04-25T08:30:11.738Z,8.42
2023-04-25T08:31:11.764Z,8.66
2023-04-25T08:32:11.746Z,8.79
2023-04-25T08:34:11.705Z,9.03
2023-04-25T08:35:11.701Z,9.10
2023-04-25T08:36:11.700Z,9.22
2023-04-25T08:37:11.729Z,9.28
2023-04-25T08:38:11.686Z,9.21
2023-04-25T08:39:11.700Z,9.23
2023-04-25T08:40:11.661Z,9.06
2023-04-25T08:41:11.647Z,9.16
2023-04-25T08:42:11.671Z,9.40
2023-04-25T08:43:11.669Z,9.39
2023-04-25T08:44:11.687Z,9.32
2023-04-25T08:45:11.629Z,9.39
2023-04-25T08:46:11.614Z,9.40
2023-04-25T08:47:11.769Z,9.55
2023-04-25T08:48:11.648Z,9.72
2023-04-25T08:49:11.580Z,9.46
2023-04-25T08:50:11.599Z,9.31
2023-04-25T08:51:11.815Z,8.82
2023-04-25T08:52:11.560Z,8.58
2023-04-25T08:53:11.571Z,8.67
2023-04-25T08:55:13.571Z,9.22
2023-04-25T08:56:11.526Z,9.28
2023-04-25T08:57:11.566Z,8.95
2023-04-25T08:58:11.544Z,8.81
2023-04-25T08:59:11.557Z,8.78
2023-04-25T09:00:11.516Z,8.73
2023-04-25T09:01:11.541Z,8.92
2023-04-25T09:02:11.598Z,9.23
2023-04-25T09:03:11.753Z,9.58
2023-04-25T09:04:11.566Z,9.59
2023-04-25T09:05:11.456Z,9.54
2023-04-25T09:06:11.447Z,9.44
2023-04-25T09:07:11.447Z,9.65
2023-04-25T09:08:11.526Z,9.95
2023-04-25T09:09:11.421Z,10.31
2023-04-25T09:10:11.431Z,10.15
2023-04-25T09:10:29.041Z,9.04
2023-04-25T09:11:11.411Z,10.30
2023-04-25T09:12:11.414Z,10.38
2023-04-25T09:13:11.463Z,9.89
2023-04-25T09:14:11.420Z,9.80
2023-04-25T09:15:11.450Z,9.74
2023-04-25T09:16:11.386Z,9.97
2023-04-25T09:17:11.414Z,9.86
2023-04-25T09:18:11.429Z,10.02
2023-04-25T09:19:11.354Z,10.04
2023-04-25T09:20:11.362Z,9.99
2023-04-25T09:21:14.402Z,10.01
2023-04-25T09:22:12.326Z,10.05
2023-04-25T09:23:11.371Z,9.99
2023-04-25T09:24:11.406Z,9.97
2023-04-25T09:25:11.322Z,9.87
2023-04-25T09:26:11.305Z,9.95
2023-04-25T09:27:11.292Z,9.62
2023-04-25T09:28:11.314Z,9.65
2023-04-25T09:29:11.284Z,9.73
2023-04-25T09:30:11.267Z,9.64
2023-04-25T09:31:11.275Z,9.31
2023-04-25T09:32:11.311Z,9.08
2023-04-25T09:33:11.350Z,8.94
2023-04-25T09:34:11.232Z,8.99
2023-04-25T09:35:11.228Z,8.87
2023-04-25T09:36:11.219Z,8.95
2023-04-25T09:37:11.252Z,8.91
2023-04-25T09:38:11.207Z,9.04
2023-04-25T09:39:11.218Z,8.85
2023-04-25T09:40:11.192Z,8.91
2023-04-25T09:41:11.178Z,8.91
2023-04-25T09:42:11.188Z,8.97
2023-04-25T09:43:11.196Z,8.85
2023-04-25T09:44:11.167Z,8.91
2023-04-25T09:45:11.225Z,8.97
2023-04-25T09:46:11.210Z,8.88
2023-04-25T09:47:11.171Z,8.78
2023-04-25T09:48:11.160Z,8.88
2023-04-25T09:49:11.136Z,8.79
2023-04-25T09:50:11.107Z,9.02
2023-04-25T09:51:11.103Z,9.16
2023-04-25T09:52:11.122Z,9.16
2023-04-25T09:53:11.093Z,9.13
2023-04-25T09:54:11.092Z,9.18
2023-04-25T09:55:11.075Z,9.04
2023-04-25T09:56:11.066Z,9.19
2023-04-25T09:57:11.084Z,9.26
2023-04-25T09:58:11.056Z,9.51
2023-04-25T09:59:11.264Z,9.55
2023-04-25T10:00:11.047Z,9.62
2023-04-25T10:01:11.060Z,9.58
2023-04-25T10:02:11.080Z,9.61
2023-04-25T10:03:11.142Z,9.46
2023-04-25T10:04:11.102Z,9.50
2023-04-25T10:05:11.070Z,9.47
2023-04-25T10:06:10.987Z,9.40
2023-04-25T10:07:11.035Z,9.32
2023-04-25T10:08:10.982Z,9.40
2023-04-25T10:09:10.972Z,9.62
2023-04-25T10:10:10.968Z,9.62
2023-04-25T10:11:10.981Z,9.82
2023-04-25T10:12:11.985Z,9.73
2023-04-25T10:13:10.922Z,9.99
2023-04-25T10:14:11.928Z,10.12
2023-04-25T10:15:10.999Z,9.99
2023-04-25T10:16:10.974Z,9.97
2023-04-25T10:17:10.946Z,9.80
2023-04-25T10:18:10.935Z,9.77
2023-04-25T10:19:10.885Z,9.73
2023-04-25T10:20:10.880Z,9.87
2023-04-25T10:21:10.899Z,9.73
2023-04-25T10:22:10.890Z,9.74
2023-04-25T10:23:10.864Z,9.56
2023-04-25T10:24:10.854Z,9.41
2023-04-25T10:25:10.845Z,9.36
2023-04-25T10:26:10.830Z,9.37
2023-04-25T10:27:10.854Z,9.48
2023-04-25T10:28:10.821Z,9.39
2023-04-25T10:29:10.810Z,9.25
2023-04-25T10:30:10.807Z,9.26
2023-04-25T10:31:10.857Z,9.21
2023-04-25T10:32:10.836Z,9.16
2023-04-25T10:33:10.777Z,8.91
2023-04-25T10:34:10.774Z,8.89
2023-04-25T10:35:10.766Z,8.73
2023-04-25T10:36:10.754Z,8.60
2023-04-25T10:37:10.785Z,8.44
2023-04-25T10:38:10.952Z,8.44
2023-04-25T10:39:10.749Z,8.46
2023-04-25T10:40:10.726Z,8.38
2023-04-25T10:41:10.728Z,8.26
2023-04-25T10:42:10.747Z,8.23
2023-04-25T10:43:10.709Z,8.19
2023-04-25T10:44:10.710Z,8.41
2023-04-25T10:45:10.690Z,8.46
2023-04-25T10:46:10.723Z,8.55
2023-04-25T10:47:10.754Z,8.48
2023-04-25T10:48:10.733Z,8.42
2023-04-25T10:49:10.678Z,8.52
2023-04-25T10:50:10.650Z,8.55
2023-04-25T10:51:11.662Z,8.56
2023-04-25T10:52:10.671Z,8.61
2023-04-25T10:53:10.636Z,8.56
2023-04-25T10:54:10.688Z,8.45
2023-04-25T10:55:10.695Z,8.55
2023-04-25T10:56:11.878Z,8.51
2023-04-25T10:57:10.600Z,8.61
2023-04-25T10:58:10.631Z,8.58
2023-04-25T10:59:10.582Z,8.78
2023-04-25T11:00:10.598Z,8.73
2023-04-25T11:01:10.580Z,8.78
2023-04-25T11:02:10.787Z,9.04
2023-04-25T11:03:10.632Z,9.06
2023-04-25T11:04:10.755Z,9.19
2023-04-25T11:05:10.551Z,9.54
2023-04-25T11:06:10.537Z,9.73
2023-04-25T11:07:10.526Z,10.02
2023-04-25T11:08:11.359Z,10.12
2023-04-25T11:09:10.519Z,10.02
2023-04-25T11:10:10.525Z,9.98
2023-04-25T11:11:10.530Z,10.19
2023-04-25T11:12:10.525Z,9.84
2023-04-25T11:13:10.510Z,9.72
2023-04-25T11:14:10.486Z,9.51
2023-04-25T11:15:10.484Z,9.56
2023-04-25T11:16:13.188Z,9.47
2023-04-25T11:17:11.524Z,9.13
2023-04-25T11:18:10.540Z,9.28
2023-04-25T11:19:10.449Z,9.51
2023-04-25T11:20:10.434Z,9.58
2023-04-25T11:21:10.417Z,9.74
2023-04-25T11:22:10.418Z,9.65
2023-04-25T11:23:10.449Z,9.56
2023-04-25T11:24:10.399Z,9.59
2023-04-25T11:25:42.887Z,10.01
2023-04-25T11:26:10.400Z,9.92
2023-04-25T11:27:10.391Z,9.98
2023-04-25T11:28:10.387Z,9.84
2023-04-25T11:29:10.359Z,9.74
2023-04-25T11:30:10.360Z,9.79
2023-04-25T11:31:10.343Z,9.66
2023-04-25T11:32:10.367Z,9.74
2023-04-25T11:33:10.413Z,9.99
2023-04-25T11:34:10.307Z,10.57
2023-04-25T11:35:10.311Z,10.67
2023-04-25T11:36:10.308Z,11.14
2023-04-25T11:37:10.293Z,10.93
2023-04-25T11:38:10.319Z,10.68
2023-04-25T11:39:10.283Z,10.26
2023-04-25T11:40:10.272Z,10.10
2023-04-25T11:41:10.284Z,10.12
2023-04-25T11:42:10.648Z,10.09
2023-04-25T11:43:10.271Z,10.05
2023-04-25T11:44:10.246Z,10.28
2023-04-25T11:45:10.228Z,10.04
2023-04-25T11:46:10.285Z,10.40
2023-04-25T11:47:10.219Z,10.51
2023-04-25T11:48:10.299Z,10.51
2023-04-25T11:49:10.211Z,10.60
2023-04-25T11:50:10.202Z,10.46
2023-04-25T11:51:10.192Z,10.48
2023-04-25T11:52:10.182Z,10.38
2023-04-25T11:53:10.210Z,10.10
2023-04-25T11:54:10.172Z,9.89
2023-04-25T11:55:11.377Z,9.95
2023-04-25T11:56:10.145Z,9.87
2023-04-25T11:57:10.181Z,9.92
2023-04-25T11:58:10.160Z,10.17
2023-04-25T11:59:10.342Z,10.13
2023-04-25T12:00:10.182Z,10.20
2023-04-25T12:01:10.107Z,10.05
2023-04-25T12:02:10.151Z,10.34
2023-04-25T12:03:10.288Z,10.41
2023-04-25T12:05:22.165Z,10.17
2023-04-25T12:06:12.251Z,10.12
2023-04-25T12:07:10.065Z,9.99
2023-04-25T12:08:10.095Z,9.98
2023-04-25T12:09:10.048Z,9.80
2023-04-25T12:10:10.130Z,9.64
2023-04-25T12:11:10.075Z,9.50
2023-04-25T12:12:10.029Z,9.51
2023-04-25T12:13:10.125Z,9.41
2023-04-25T12:14:10.004Z,9.47
2023-04-25T12:15:11.080Z,9.64
2023-04-25T12:16:10.065Z,9.74
2023-04-25T12:17:10.000Z,9.54
2023-04-25T12:18:10.078Z,9.56
2023-04-25T12:19:09.974Z,9.48
2023-04-25T12:20:10.026Z,9.46
2023-04-25T12:21:09.960Z,9.50
2023-04-25T12:22:09.953Z,9.48
2023-04-25T12:23:09.978Z,9.59
2023-04-25T12:24:09.936Z,9.62
2023-04-25T12:25:09.931Z,9.79
2023-04-25T12:26:09.918Z,10.01
2023-04-25T12:27:09.933Z,10.38
2023-04-25T12:28:09.933Z,10.33
2023-04-25T12:29:09.911Z,10.57
2023-04-25T12:30:09.896Z,10.72
2023-04-25T12:31:09.909Z,11.00
2023-04-25T12:32:09.874Z,11.02
2023-04-25T12:33:09.915Z,10.79
2023-04-25T12:34:09.862Z,10.79
2023-04-25T12:35:09.850Z,10.68
2023-04-25T12:36:10.002Z,10.94
2023-04-25T12:37:09.827Z,10.87
2023-04-25T12:38:09.852Z,10.97
2023-04-25T12:39:09.868Z,11.08
2023-04-25T12:40:09.870Z,11.32
2023-04-25T12:41:09.795Z,11.37
2023-04-25T12:42:10.049Z,11.37
2023-04-25T12:43:09.819Z,11.51
2023-04-25T12:44:09.788Z,11.22
2023-04-25T12:45:09.861Z,10.75
2023-04-25T12:46:09.828Z,10.33
2023-04-25T12:47:09.868Z,10.04
2023-04-25T12:48:09.845Z,9.95
2023-04-25T12:49:18.575Z,10.07
2023-04-25T12:50:11.738Z,10.05
2023-04-25T12:51:09.734Z,10.15
2023-04-25T12:52:09.726Z,9.91
2023-04-25T12:53:09.749Z,9.94
2023-04-25T12:54:09.876Z,9.74
2023-04-25T12:55:09.697Z,9.68
2023-04-25T12:56:09.690Z,9.74
2023-04-25T12:57:09.690Z,9.87
2023-04-25T12:58:09.685Z,9.83
2023-04-25T12:59:09.704Z,9.69
2023-04-25T13:00:09.663Z,9.80
2023-04-25T13:01:09.680Z,9.94
2023-04-25T13:02:09.704Z,9.97
2023-04-25T13:03:09.767Z,10.26
2023-04-25T13:04:09.719Z,10.12
2023-04-25T13:05:09.658Z,9.97
2023-04-25T13:06:09.615Z,9.94
2023-04-25T13:07:09.598Z,10.15
2023-04-25T13:08:09.641Z,10.30
2023-04-25T13:09:09.599Z,10.48
2023-04-25T13:10:09.599Z,10.46
2023-04-25T13:11:09.583Z,10.19
2023-04-25T13:12:09.568Z,9.97
2023-04-25T13:13:09.646Z,9.98
2023-04-25T13:14:09.564Z,10.16
2023-04-25T13:15:09.543Z,10.22
2023-04-25T13:16:09.592Z,10.30
2023-04-25T13:17:09.519Z,10.34